Altavista, Virginia
Current Conditions -  °F | °C
As of 10:15 AM on Wednesday 26 Nov 2014 (Local Time) from K0V4 Reporting Station
Overcast Overcast  
Wind Chill: 37°   Ceiling: 700
Heat Index: 41°   Visibility: 10mi
Dew Point: 41°   Wind: 6mph
Humidity: 99%   Direction: 10°N
Pressure: 29.98"   Gusts: NA
Location:  37.11°N, 79.29°W
Report Text: K0V4 261515Z AUTO 01005KT 10SM BKN007 OVC012 05/05 A2998 RMK AO1 T00510050
Loading
Personal Weather Stations






























Interactive Weather Map New forecast layout! Learn more

10-Day Weather Forecast

Advertisements
Track Severe Weather on mobile